Time;durP1;ratioP1;P1;durP2;ratioP2;P2;SDS_P1;SDS_P2;PMS_P1;PMS_P2;Temp;Humidity;BMP_temperature;BMP_pressure;BME280_temperature;BME280_humidity;BME280_pressure;Samples;Min_cycle;Max_cycle;Signal;HPM_P1;HPM_P2
2022/07/31 00:01:20;;;;;;;3.47;3.20;;;23.60;54.50;;;;;;5042379;28;20459;-48
2022/07/31 00:03:46;;;;;;;3.57;3.10;;;23.60;54.70;;;;;;5037240;28;20469;-48
2022/07/31 00:06:13;;;;;;;2.97;2.77;;;23.60;54.90;;;;;;5042987;28;20473;-48
2022/07/31 00:08:40;;;;;;;4.50;2.90;;;23.50;55.10;;;;;;5054281;28;20488;-48
2022/07/31 00:11:10;;;;;;;2.80;2.53;;;23.50;55.50;;;;;;5042373;28;20629;-48
2022/07/31 00:13:37;;;;;;;3.07;2.73;;;23.50;55.70;;;;;;5042942;28;20454;-48
2022/07/31 00:16:24;;;;;;;3.40;3.17;;;23.50;55.80;;;;;;5054435;28;20458;-48
2022/07/31 00:18:50;;;;;;;4.20;3.47;;;23.50;56.10;;;;;;5040565;28;20982;-48
2022/07/31 00:21:17;;;;;;;4.03;3.20;;;23.50;56.00;;;;;;5040925;28;20469;-48
2022/07/31 00:23:44;;;;;;;3.33;3.03;;;23.50;56.20;;;;;;5040316;28;20830;-48
2022/07/31 00:26:11;;;;;;;3.10;2.40;;;23.50;56.20;;;;;;5036884;28;20469;-48
2022/07/31 00:28:38;;;;;;;4.00;2.97;;;23.40;56.20;;;;;;5039655;28;20835;-48
2022/07/31 00:31:04;;;;;;;3.13;2.83;;;23.40;56.10;;;;;;5035428;28;20674;-48
2022/07/31 00:33:31;;;;;;;3.03;2.73;;;23.40;56.20;;;;;;5037771;28;20462;-48
2022/07/31 00:35:58;;;;;;;4.40;3.67;;;23.40;56.20;;;;;;5036315;28;20528;-48
2022/07/31 00:38:24;;;;;;;2.83;2.60;;;23.40;56.20;;;;;;5032654;28;20912;-48
2022/07/31 00:40:53;;;;;;;3.03;2.77;;;23.40;56.10;;;;;;5034500;28;20459;-48
2022/07/31 00:43:20;;;;;;;3.40;3.10;;;23.30;56.50;;;;;;5033066;28;20495;-48
2022/07/31 00:45:48;;;;;;;3.70;3.07;;;23.30;56.40;;;;;;5034074;28;20850;-48
2022/07/31 00:48:25;;;;;;;3.70;3.40;;;23.30;56.40;;;;;;5033581;28;20466;-48
2022/07/31 00:50:53;;;;;;;2.70;2.50;;;23.30;56.60;;;;;;5037157;28;20537;-48
2022/07/31 00:53:20;;;;;;;3.47;3.27;;;23.30;56.90;;;;;;5035605;28;20470;-48
2022/07/31 00:55:47;;;;;;;3.80;3.00;;;23.20;57.00;;;;;;5035851;28;20463;-48
2022/07/31 00:58:18;;;;;;;4.33;2.83;;;23.20;56.80;;;;;;5037231;28;20502;-48
2022/07/31 01:00:45;;;;;;;2.93;2.73;;;23.20;56.80;;;;;;5033358;28;21174;-48
2022/07/31 01:03:13;;;;;;;5.17;3.47;;;23.20;56.80;;;;;;5035496;28;20486;-48
2022/07/31 01:05:40;;;;;;;5.00;2.20;;;23.20;56.90;;;;;;5034698;28;20461;-48
2022/07/31 01:08:07;;;;;;;2.93;2.63;;;23.20;57.10;;;;;;5036603;28;20517;-48
2022/07/31 01:10:43;;;;;;;3.07;2.87;;;23.20;57.30;;;;;;5066641;28;20462;-48
2022/07/31 01:13:19;;;;;;;3.60;2.90;;;23.10;57.40;;;;;;5030130;28;20499;-48
2022/07/31 01:15:47;;;;;;;3.13;2.93;;;23.10;57.30;;;;;;5027544;28;20765;-48
2022/07/31 01:18:16;;;;;;;3.40;3.10;;;23.10;57.20;;;;;;5029825;28;20508;-48
2022/07/31 01:20:44;;;;;;;3.13;2.63;;;23.10;57.30;;;;;;5032621;28;20462;-48
2022/07/31 01:23:34;;;;;;;3.20;2.50;;;23.10;57.60;;;;;;5069055;28;20569;-48
2022/07/31 01:26:01;;;;;;;3.43;3.07;;;23.10;57.60;;;;;;5044322;28;20462;-48
2022/07/31 01:29:05;;;;;;;9.23;4.07;;;23.00;57.70;;;;;;5030750;28;20462;-48
2022/07/31 01:31:42;;;;;;;4.27;3.40;;;23.00;58.00;;;;;;5031991;28;20529;-48
2022/07/31 01:34:47;;;;;;;3.20;3.00;;;23.00;58.00;;;;;;5031617;28;20466;-49
2022/07/31 01:37:26;;;;;;;3.80;2.97;;;22.90;58.30;;;;;;5063061;28;20454;-48
2022/07/31 01:40:08;;;;;;;4.00;3.10;;;22.90;58.60;;;;;;5018178;28;20465;-48
2022/07/31 01:42:38;;;;;;;3.70;3.40;;;22.80;58.90;;;;;;5031076;28;20956;-48
2022/07/31 01:45:09;;;;;;;2.87;2.67;;;22.80;59.00;;;;;;5033016;28;20466;-48
2022/07/31 01:47:38;;;;;;;3.60;3.30;;;22.80;59.00;;;;;;5062628;28;20462;-48
2022/07/31 01:50:07;;;;;;;2.63;2.43;;;22.80;59.10;;;;;;5038363;28;20865;-48
2022/07/31 01:52:41;;;;;;;3.23;2.93;;;22.80;58.90;;;;;;5035870;28;20477;-48
2022/07/31 01:55:11;;;;;;;2.97;2.67;;;22.70;58.90;;;;;;5033756;28;20717;-48
2022/07/31 01:57:41;;;;;;;5.83;2.70;;;22.70;58.90;;;;;;5034697;28;20493;-48
2022/07/31 02:00:09;;;;;;;3.20;3.00;;;22.70;59.10;;;;;;5030254;28;20851;-48
2022/07/31 02:02:57;;;;;;;3.53;3.23;;;22.70;59.10;;;;;;5036371;28;20490;-48
2022/07/31 02:05:36;;;;;;;3.57;2.93;;;22.60;59.00;;;;;;5036640;28;20494;-48
2022/07/31 02:08:05;;;;;;;3.90;3.57;;;22.60;59.00;;;;;;5034460;28;20457;-48
2022/07/31 02:10:32;;;;;;;4.87;3.20;;;22.60;59.10;;;;;;5071100;28;20462;-48
2022/07/31 02:13:01;;;;;;;2.93;2.73;;;22.60;59.10;;;;;;5035555;28;20478;-48
2022/07/31 02:15:29;;;;;;;2.70;2.50;;;22.60;59.00;;;;;;5066261;28;20470;-47
2022/07/31 02:17:58;;;;;;;2.83;2.50;;;22.50;59.10;;;;;;5069556;28;20466;-48
2022/07/31 02:20:26;;;;;;;2.83;2.63;;;22.50;59.10;;;;;;5025309;28;20466;-48
2022/07/31 02:22:54;;;;;;;3.00;2.80;;;22.40;59.30;;;;;;5039702;28;20482;-48
2022/07/31 02:25:21;;;;;;;5.10;2.87;;;22.40;59.40;;;;;;5037789;28;20454;-48
2022/07/31 02:27:49;;;;;;;4.67;2.60;;;22.40;59.50;;;;;;5038549;28;20978;-48
2022/07/31 02:30:27;;;;;;;2.97;2.73;;;22.30;59.40;;;;;;5034782;28;21009;-48
2022/07/31 02:33:09;;;;;;;3.23;2.93;;;22.30;59.50;;;;;;5039321;28;20680;-48
2022/07/31 02:35:37;;;;;;;3.67;3.27;;;22.30;59.90;;;;;;5032735;28;20462;-48
2022/07/31 02:38:11;;;;;;;4.87;3.23;;;22.20;59.90;;;;;;5068374;28;20454;-47
2022/07/31 02:40:52;;;;;;;3.07;2.77;;;22.20;60.20;;;;;;5037706;28;20549;-47
2022/07/31 02:43:20;;;;;;;3.77;2.87;;;22.10;60.40;;;;;;5036868;28;20544;-48
2022/07/31 02:45:47;;;;;;;2.80;2.60;;;22.10;60.70;;;;;;5039594;28;20462;-46
2022/07/31 02:48:14;;;;;;;4.07;3.67;;;22.00;60.60;;;;;;5035523;28;20467;-45
2022/07/31 02:50:42;;;;;;;4.37;2.77;;;22.00;60.70;;;;;;5035886;28;20462;-45
2022/07/31 02:53:08;;;;;;;3.30;2.70;;;22.00;60.90;;;;;;5038095;28;20468;-45
2022/07/31 02:55:35;;;;;;;2.90;2.60;;;22.00;60.70;;;;;;5035098;28;20469;-45
2022/07/31 02:58:02;;;;;;;4.43;3.00;;;21.90;60.90;;;;;;5037928;28;21029;-45
2022/07/31 03:00:29;;;;;;;3.90;3.50;;;21.90;61.20;;;;;;5037372;28;20470;-45
2022/07/31 03:02:57;;;;;;;4.50;3.20;;;21.90;61.30;;;;;;5033468;28;20521;-45
2022/07/31 03:05:23;;;;;;;3.70;2.90;;;21.90;61.20;;;;;;5066330;28;20458;-45
2022/07/31 03:07:50;;;;;;;3.17;2.90;;;21.90;61.30;;;;;;5066567;28;20465;-45
2022/07/31 03:10:17;;;;;;;3.00;2.80;;;21.90;61.20;;;;;;5035760;28;20451;-45
2022/07/31 03:12:46;;;;;;;3.63;3.33;;;21.90;60.80;;;;;;5031442;28;20520;-45
2022/07/31 03:15:17;;;;;;;3.40;3.10;;;21.80;60.50;;;;;;5038589;28;20462;-45
2022/07/31 03:17:45;;;;;;;3.10;2.80;;;21.80;60.60;;;;;;5040477;28;20489;-45
2022/07/31 03:20:13;;;;;;;4.10;3.07;;;21.70;60.40;;;;;;5056237;28;20477;-45
2022/07/31 03:22:41;;;;;;;3.50;3.30;;;21.70;60.30;;;;;;5038483;28;20496;-45
2022/07/31 03:25:09;;;;;;;2.90;2.70;;;21.70;60.50;;;;;;5041137;28;20451;-43
2022/07/31 03:27:47;;;;;;;6.10;3.10;;;21.70;60.50;;;;;;5038610;28;20989;-43
2022/07/31 03:30:26;;;;;;;3.20;2.97;;;21.70;60.50;;;;;;5040061;28;20491;-43
2022/07/31 03:32:54;;;;;;;5.87;3.20;;;21.60;60.50;;;;;;5038203;28;20471;-43
2022/07/31 03:35:22;;;;;;;3.07;2.87;;;21.60;60.60;;;;;;5038312;28;20483;-43
2022/07/31 03:37:49;;;;;;;6.70;3.40;;;21.60;60.60;;;;;;5038224;28;20469;-44
2022/07/31 03:40:16;;;;;;;2.80;2.60;;;21.60;60.60;;;;;;5040152;28;20459;-43
2022/07/31 03:42:43;;;;;;;3.90;3.00;;;21.60;60.70;;;;;;5038900;28;20486;-43
2022/07/31 03:45:12;;;;;;;3.83;3.47;;;21.60;60.70;;;;;;5035860;28;20621;-43
2022/07/31 03:47:38;;;;;;;3.23;2.93;;;21.60;60.70;;;;;;5073335;28;20826;-44
2022/07/31 03:50:07;;;;;;;3.63;3.00;;;21.60;60.90;;;;;;5038132;28;21011;-43
2022/07/31 03:52:34;;;;;;;3.97;3.20;;;21.60;61.10;;;;;;5038837;28;20443;-43
2022/07/31 03:55:01;;;;;;;3.03;2.83;;;21.50;61.10;;;;;;5036550;28;20462;-43
2022/07/31 03:57:29;;;;;;;3.57;2.90;;;21.50;61.20;;;;;;5039592;28;20847;-43
2022/07/31 03:59:59;;;;;;;3.53;3.33;;;21.50;61.20;;;;;;5043335;28;21381;-44
2022/07/31 04:02:27;;;;;;;3.50;3.30;;;21.50;61.30;;;;;;5069528;28;20465;-43
2022/07/31 04:04:56;;;;;;;3.50;3.20;;;21.50;61.40;;;;;;5042984;28;20454;-43
2022/07/31 04:07:23;;;;;;;3.37;3.07;;;21.50;61.40;;;;;;5031665;28;20459;-43
2022/07/31 04:09:50;;;;;;;3.27;3.00;;;21.50;61.60;;;;;;5037985;28;20833;-43
2022/07/31 04:12:16;;;;;;;3.47;2.83;;;21.50;61.70;;;;;;5037701;28;20921;-43
2022/07/31 04:14:43;;;;;;;4.23;3.30;;;21.50;61.80;;;;;;5040191;28;21003;-43
2022/07/31 04:17:10;;;;;;;4.23;3.47;;;21.50;61.80;;;;;;5040463;28;20455;-43
2022/07/31 04:19:36;;;;;;;4.40;3.20;;;21.50;61.90;;;;;;5058932;28;20826;-44
2022/07/31 04:22:04;;;;;;;3.27;2.97;;;21.50;62.00;;;;;;5036652;28;20468;-43
2022/07/31 04:24:32;;;;;;;4.77;3.40;;;21.40;62.10;;;;;;5072287;28;20490;-43
2022/07/31 04:26:59;;;;;;;3.60;3.30;;;21.50;62.20;;;;;;5039062;28;20467;-43
2022/07/31 04:29:28;;;;;;;4.23;3.27;;;21.50;62.00;;;;;;5037917;28;20846;-43
2022/07/31 04:31:55;;;;;;;6.80;3.83;;;21.50;62.10;;;;;;5037613;28;20955;-43
2022/07/31 04:34:22;;;;;;;5.77;3.63;;;21.50;62.10;;;;;;5071989;28;20467;-43
2022/07/31 04:36:49;;;;;;;3.43;3.13;;;21.50;62.10;;;;;;5038912;28;20479;-43
2022/07/31 04:39:16;;;;;;;4.53;3.30;;;21.50;61.90;;;;;;5038596;28;20578;-43
2022/07/31 04:41:43;;;;;;;3.80;3.50;;;21.50;61.80;;;;;;5037656;28;20457;-43
2022/07/31 04:44:09;;;;;;;3.40;3.20;;;21.50;61.80;;;;;;5039289;28;20510;-43
2022/07/31 04:46:37;;;;;;;4.97;4.47;;;21.50;62.00;;;;;;5038054;28;20458;-43
2022/07/31 04:49:03;;;;;;;4.23;3.07;;;21.50;62.10;;;;;;5037732;28;20455;-43
2022/07/31 04:51:30;;;;;;;4.90;3.20;;;21.50;61.90;;;;;;5041907;28;20462;-43
2022/07/31 04:53:57;;;;;;;5.43;3.20;;;21.50;61.90;;;;;;5069225;28;20465;-43
2022/07/31 04:56:33;;;;;;;3.90;3.60;;;21.50;61.90;;;;;;5037575;28;20466;-43
2022/07/31 04:59:01;;;;;;;3.60;3.30;;;21.50;62.00;;;;;;5035152;28;20500;-43
2022/07/31 05:01:28;;;;;;;4.13;3.63;;;21.50;62.10;;;;;;5034420;28;20845;-43
2022/07/31 05:03:55;;;;;;;3.63;3.33;;;21.50;62.30;;;;;;5035486;28;21021;-43
2022/07/31 05:06:21;;;;;;;3.50;3.13;;;21.50;62.40;;;;;;5039297;28;20459;-43
2022/07/31 05:08:48;;;;;;;4.50;3.80;;;21.50;62.60;;;;;;5034691;28;20475;-43
2022/07/31 05:11:21;;;;;;;3.33;3.03;;;21.50;62.50;;;;;;5033407;28;20467;-43
2022/07/31 05:13:53;;;;;;;3.60;3.40;;;21.50;62.20;;;;;;5065886;28;20913;-44
2022/07/31 05:16:20;;;;;;;4.13;3.73;;;21.60;62.10;;;;;;5038155;28;20470;-43
2022/07/31 05:18:48;;;;;;;6.13;3.00;;;21.60;61.90;;;;;;5039193;28;20469;-43
2022/07/31 05:21:15;;;;;;;4.00;3.70;;;21.60;61.80;;;;;;5037493;28;20824;-48
2022/07/31 05:23:45;;;;;;;3.97;3.43;;;21.60;62.00;;;;;;5037957;28;20585;-43
2022/07/31 05:26:13;;;;;;;4.77;4.30;;;21.70;62.10;;;;;;5069019;28;20822;-43
2022/07/31 05:28:40;;;;;;;3.03;2.83;;;21.70;62.20;;;;;;5035960;28;20846;-43
2022/07/31 05:31:09;;;;;;;3.60;3.30;;;21.80;62.20;;;;;;5034574;28;20463;-43
2022/07/31 05:33:36;;;;;;;4.00;3.60;;;21.80;62.30;;;;;;5038130;28;20814;-43
2022/07/31 05:36:03;;;;;;;3.40;3.10;;;21.80;62.10;;;;;;5035051;28;20950;-43
2022/07/31 05:38:30;;;;;;;3.80;3.50;;;21.90;61.90;;;;;;5035513;28;20466;-45
2022/07/31 05:40:57;;;;;;;4.60;3.77;;;21.90;61.90;;;;;;5068187;28;20474;-43
2022/07/31 05:43:24;;;;;;;5.57;3.33;;;22.00;61.50;;;;;;5037717;28;20490;-43
2022/07/31 05:45:51;;;;;;;3.60;3.40;;;22.00;61.50;;;;;;5033740;28;20474;-43
2022/07/31 05:48:17;;;;;;;4.20;3.60;;;22.00;61.60;;;;;;5038055;28;20533;-43
2022/07/31 05:50:46;;;;;;;3.67;3.30;;;22.00;62.00;;;;;;5032928;28;20830;-44
2022/07/31 05:53:14;;;;;;;5.17;3.37;;;22.10;62.00;;;;;;5033092;28;20469;-45
2022/07/31 05:55:42;;;;;;;3.70;3.37;;;22.10;62.00;;;;;;5039220;28;20470;-43
2022/07/31 05:58:09;;;;;;;4.20;3.80;;;22.10;61.90;;;;;;5036630;28;20478;-44
2022/07/31 06:00:43;;;;;;;4.80;3.50;;;22.10;61.80;;;;;;5030292;28;20458;-44
2022/07/31 06:03:11;;;;;;;5.73;3.87;;;22.10;61.60;;;;;;5032680;28;21175;-43
2022/07/31 06:05:39;;;;;;;3.57;3.27;;;22.20;61.50;;;;;;5036622;28;20494;-43
2022/07/31 06:08:08;;;;;;;4.07;3.63;;;22.20;61.20;;;;;;5056031;28;20463;-44
2022/07/31 06:10:38;;;;;;;3.80;3.20;;;22.20;61.30;;;;;;5038727;28;20460;-43
2022/07/31 06:13:05;;;;;;;3.87;3.63;;;22.30;61.20;;;;;;5036398;28;20460;-43
2022/07/31 06:15:32;;;;;;;3.40;3.10;;;22.30;61.00;;;;;;5033291;28;20822;-43
2022/07/31 06:18:02;;;;;;;5.53;3.50;;;22.30;61.00;;;;;;5039668;28;20468;-44
2022/07/31 06:20:29;;;;;;;5.27;3.60;;;22.40;61.00;;;;;;5036841;28;20512;-44
2022/07/31 06:22:56;;;;;;;6.10;3.53;;;22.40;60.70;;;;;;5037712;28;21430;-44
2022/07/31 06:25:24;;;;;;;4.17;3.87;;;22.40;60.10;;;;;;5033483;28;20463;-43
2022/07/31 06:27:55;;;;;;;3.60;3.30;;;22.50;60.00;;;;;;5037993;28;20494;-44
2022/07/31 06:30:26;;;;;;;4.63;3.30;;;22.50;60.00;;;;;;5036059;28;20885;-44
2022/07/31 06:32:53;;;;;;;3.73;3.43;;;22.50;60.10;;;;;;5036095;28;20521;-44
2022/07/31 06:35:20;;;;;;;4.57;3.27;;;22.50;60.30;;;;;;5034684;28;20471;-43
2022/07/31 06:37:46;;;;;;;3.73;3.37;;;22.50;60.30;;;;;;5035923;28;20451;-44
2022/07/31 06:40:13;;;;;;;4.03;3.43;;;22.60;60.30;;;;;;5035239;28;20466;-44
2022/07/31 06:42:40;;;;;;;5.20;3.33;;;22.60;60.50;;;;;;5038379;28;20466;-44
2022/07/31 06:45:08;;;;;;;3.83;3.43;;;22.70;60.70;;;;;;5037774;28;20492;-44
2022/07/31 06:47:34;;;;;;;4.03;3.57;;;22.70;60.30;;;;;;5036920;28;20459;-44
2022/07/31 06:50:02;;;;;;;4.30;4.00;;;22.70;60.20;;;;;;5040730;28;20476;-44
2022/07/31 06:52:29;;;;;;;4.50;4.10;;;22.70;60.20;;;;;;5034017;28;20913;-44
2022/07/31 06:54:56;;;;;;;4.40;3.60;;;22.80;60.40;;;;;;5037736;28;20485;-44
2022/07/31 06:57:22;;;;;;;4.87;4.20;;;22.80;60.50;;;;;;5036677;28;20762;-44
2022/07/31 06:59:50;;;;;;;7.03;4.30;;;22.80;60.30;;;;;;5036105;28;24400;-45
2022/07/31 07:02:17;;;;;;;4.50;4.10;;;22.80;60.00;;;;;;5036300;28;20473;-45
2022/07/31 07:04:44;;;;;;;4.13;3.63;;;22.90;60.00;;;;;;5039693;28;20565;-45
2022/07/31 07:07:33;;;;;;;3.83;3.50;;;22.90;59.80;;;;;;5031310;28;20919;-45
2022/07/31 07:10:00;;;;;;;5.10;3.70;;;23.00;60.00;;;;;;5032147;28;20455;-45
2022/07/31 07:12:27;;;;;;;4.60;3.23;;;23.00;60.10;;;;;;5031912;28;20458;-45
2022/07/31 07:14:54;;;;;;;3.47;3.17;;;23.10;60.00;;;;;;5034506;28;20478;-45
2022/07/31 07:17:20;;;;;;;3.30;3.00;;;23.10;59.60;;;;;;5036110;28;21630;-44
2022/07/31 07:19:54;;;;;;;3.60;3.30;;;23.20;59.20;;;;;;5047760;28;20940;-45
2022/07/31 07:22:21;;;;;;;4.10;3.50;;;23.20;58.90;;;;;;5069923;28;20544;-45
2022/07/31 07:24:59;;;;;;;4.57;3.47;;;23.30;58.50;;;;;;5037733;28;20850;-45
2022/07/31 07:27:25;;;;;;;4.30;3.50;;;23.30;58.00;;;;;;5036243;28;20456;-45
2022/07/31 07:29:52;;;;;;;3.50;3.20;;;23.30;57.60;;;;;;5034144;28;20454;-45
2022/07/31 07:32:19;;;;;;;5.10;3.40;;;23.30;57.30;;;;;;5067569;28;20457;-45
2022/07/31 07:34:46;;;;;;;2.87;2.67;;;23.30;57.40;;;;;;5068877;28;20958;-45
2022/07/31 07:37:13;;;;;;;4.40;3.30;;;23.30;57.40;;;;;;5037387;28;20451;-45
2022/07/31 07:39:39;;;;;;;6.20;3.80;;;23.40;57.30;;;;;;5037176;28;20469;-45
2022/07/31 07:42:06;;;;;;;3.80;3.17;;;23.40;57.20;;;;;;5037066;28;20472;-45
2022/07/31 07:44:33;;;;;;;4.03;3.30;;;23.40;57.10;;;;;;5034840;28;21027;-45
2022/07/31 07:47:00;;;;;;;3.93;3.40;;;23.40;57.00;;;;;;5031661;28;20470;-45
2022/07/31 07:49:26;;;;;;;3.37;3.07;;;23.40;57.00;;;;;;5036401;28;20454;-45
2022/07/31 07:51:53;;;;;;;3.10;2.90;;;23.50;56.90;;;;;;5033792;28;20579;-45
2022/07/31 07:54:26;;;;;;;3.60;3.30;;;23.50;56.60;;;;;;5034416;28;20470;-45
2022/07/31 07:56:53;;;;;;;3.70;3.40;;;23.60;56.20;;;;;;5035265;28;20990;-45
2022/07/31 07:59:20;;;;;;;5.07;3.13;;;23.60;56.00;;;;;;5032984;28;20499;-45
2022/07/31 08:01:47;;;;;;;2.70;2.50;;;23.70;55.80;;;;;;5034826;28;20466;-45
2022/07/31 08:04:14;;;;;;;4.67;3.20;;;23.70;55.70;;;;;;5033606;28;20487;-45
2022/07/31 08:06:40;;;;;;;3.70;3.40;;;23.80;55.40;;;;;;5038833;28;21014;-45
2022/07/31 08:09:07;;;;;;;4.00;3.33;;;23.80;55.20;;;;;;5037211;28;20455;-45
2022/07/31 08:11:34;;;;;;;4.13;3.57;;;23.90;55.20;;;;;;5035105;28;21257;-45
2022/07/31 08:14:01;;;;;;;3.97;3.13;;;23.90;55.10;;;;;;5042100;28;20466;-45
2022/07/31 08:16:27;;;;;;;3.60;3.03;;;24.00;54.80;;;;;;5038910;28;20465;-45
2022/07/31 08:18:54;;;;;;;5.40;3.50;;;24.10;54.70;;;;;;5040317;28;21622;-44
2022/07/31 08:21:21;;;;;;;4.90;3.80;;;24.10;54.60;;;;;;5037167;28;20458;-45
2022/07/31 08:23:47;;;;;;;3.70;3.40;;;24.20;54.50;;;;;;5037587;28;20503;-45
2022/07/31 08:26:16;;;;;;;4.77;4.27;;;24.20;54.40;;;;;;5043236;28;20970;-45
2022/07/31 08:28:44;;;;;;;4.90;3.40;;;24.30;54.60;;;;;;5038488;28;20713;-45
2022/07/31 08:31:19;;;;;;;4.03;3.70;;;24.30;54.20;;;;;;5038677;28;20974;-45
2022/07/31 08:33:46;;;;;;;4.57;3.50;;;24.40;54.60;;;;;;5038345;28;20527;-45
2022/07/31 08:36:13;;;;;;;5.00;3.37;;;24.50;54.50;;;;;;5043407;28;20970;-45
2022/07/31 08:38:40;;;;;;;4.97;4.33;;;24.60;53.90;;;;;;5039762;28;20466;-45
2022/07/31 08:41:07;;;;;;;3.40;3.10;;;24.70;53.90;;;;;;5040079;28;20458;-45
2022/07/31 08:43:33;;;;;;;3.83;3.30;;;24.80;53.70;;;;;;5033464;28;20466;-45
2022/07/31 08:46:21;;;;;;;3.10;2.90;;;24.90;53.20;;;;;;5033641;28;20513;-45
2022/07/31 08:48:53;;;;;;;3.73;3.43;;;25.10;52.70;;;;;;5040069;28;20463;-45
2022/07/31 08:51:22;;;;;;;3.90;2.80;;;25.30;52.50;;;;;;5071579;28;20908;-45
2022/07/31 08:53:50;;;;;;;4.30;3.07;;;25.40;52.10;;;;;;5040270;28;20867;-45
2022/07/31 08:56:18;;;;;;;5.10;3.60;;;25.50;51.40;;;;;;5037582;28;20493;-45
2022/07/31 08:58:45;;;;;;;3.23;2.93;;;25.60;51.00;;;;;;5034456;28;20489;-45
2022/07/31 09:01:13;;;;;;;3.80;3.10;;;25.70;51.10;;;;;;5036594;28;20635;-45
2022/07/31 09:03:40;;;;;;;8.43;3.17;;;25.90;51.40;;;;;;5039267;28;20955;-45
2022/07/31 09:06:07;;;;;;;7.53;4.90;;;26.00;51.10;;;;;;5043518;28;20484;-45
2022/07/31 09:08:35;;;;;;;4.63;3.80;;;26.10;49.90;;;;;;5070180;28;20478;-45
2022/07/31 09:11:06;;;;;;;3.73;3.40;;;26.20;49.90;;;;;;5039066;28;20461;-45
2022/07/31 09:13:33;;;;;;;4.03;3.63;;;26.20;50.00;;;;;;5041895;28;20454;-44
2022/07/31 09:16:01;;;;;;;3.33;3.03;;;26.20;50.10;;;;;;5038593;28;20548;-45
2022/07/31 09:18:28;;;;;;;3.70;3.20;;;26.20;50.00;;;;;;5037709;28;20454;-45
2022/07/31 09:20:58;;;;;;;4.30;3.20;;;26.20;50.10;;;;;;5035764;28;20454;-45
2022/07/31 09:23:26;;;;;;;3.20;2.97;;;26.20;50.00;;;;;;5036350;28;20462;-46
2022/07/31 09:26:03;;;;;;;4.77;4.20;;;26.20;50.00;;;;;;5036094;28;20479;-46
2022/07/31 09:28:45;;;;;;;4.70;4.40;;;26.20;50.00;;;;;;5039601;28;20442;-46
2022/07/31 09:31:12;;;;;;;4.00;3.60;;;26.20;49.80;;;;;;5039258;28;20469;-46
2022/07/31 09:33:45;;;;;;;3.40;3.10;;;26.20;49.70;;;;;;5037795;28;20573;-46
2022/07/31 09:36:13;;;;;;;6.40;3.13;;;26.20;49.70;;;;;;5071469;28;20676;-46
2022/07/31 09:38:42;;;;;;;3.17;2.70;;;26.20;50.00;;;;;;5039904;28;20468;-46
2022/07/31 09:41:13;;;;;;;3.67;3.37;;;26.20;49.90;;;;;;5039145;28;20505;-46
2022/07/31 09:44:02;;;;;;;2.90;2.70;;;26.10;49.50;;;;;;5037736;28;20459;-46
2022/07/31 09:46:47;;;;;;;3.50;3.17;;;26.10;49.50;;;;;;5038757;28;20825;-46
2022/07/31 09:49:14;;;;;;;3.80;2.93;;;26.20;49.20;;;;;;5037110;28;20453;-46
2022/07/31 09:51:43;;;;;;;4.23;3.00;;;26.20;48.90;;;;;;5037532;28;20542;-46
2022/07/31 09:54:25;;;;;;;3.73;3.27;;;26.20;48.70;;;;;;5068084;28;20463;-46
2022/07/31 09:56:52;;;;;;;3.17;2.87;;;26.20;48.60;;;;;;5036122;28;20486;-46
2022/07/31 09:59:19;;;;;;;3.50;2.83;;;26.30;48.50;;;;;;5031382;28;20462;-46
2022/07/31 10:01:47;;;;;;;3.90;3.03;;;26.30;48.70;;;;;;5034007;28;20458;-46
2022/07/31 10:04:17;;;;;;;3.00;2.33;;;26.40;48.80;;;;;;5033152;28;20544;-46
2022/07/31 10:06:47;;;;;;;5.23;2.87;;;26.50;48.40;;;;;;5033818;28;20496;-46
2022/07/31 10:09:17;;;;;;;3.67;3.00;;;26.70;48.20;;;;;;5034602;28;20458;-46
2022/07/31 10:11:46;;;;;;;5.20;2.83;;;26.80;47.90;;;;;;5036187;28;20852;-46
2022/07/31 10:14:20;;;;;;;3.87;3.47;;;26.90;48.30;;;;;;5069186;28;20466;-46
2022/07/31 10:16:49;;;;;;;11.93;5.10;;;27.10;48.80;;;;;;5037122;28;21083;-46
2022/07/31 10:19:17;;;;;;;3.57;3.27;;;27.40;48.50;;;;;;5035795;28;20454;-46
2022/07/31 10:21:52;;;;;;;3.40;3.10;;;27.60;48.30;;;;;;5038938;28;20475;-46
2022/07/31 10:24:21;;;;;;;3.40;3.20;;;27.80;46.80;;;;;;5037863;28;20882;-46
2022/07/31 10:26:57;;;;;;;4.53;3.20;;;27.90;46.40;;;;;;5035293;28;20493;-46
2022/07/31 10:29:29;;;;;;;4.00;3.60;;;28.10;46.60;;;;;;5038878;28;21148;-46
2022/07/31 10:31:58;;;;;;;4.43;4.00;;;28.40;46.30;;;;;;5037391;28;20556;-46
2022/07/31 10:34:26;;;;;;;4.73;3.37;;;28.50;46.10;;;;;;5036439;28;20466;-47
2022/07/31 10:37:00;;;;;;;4.27;3.80;;;28.50;46.10;;;;;;5047968;28;20598;-46
2022/07/31 10:39:42;;;;;;;4.30;3.43;;;28.40;45.60;;;;;;5028859;28;20551;-46
2022/07/31 10:42:50;;;;;;;3.60;3.20;;;28.30;45.80;;;;;;5033931;28;20666;-46
2022/07/31 10:45:17;;;;;;;3.63;3.33;;;28.30;46.10;;;;;;5010561;28;20309;-46
2022/07/31 10:47:59;;;;;;;3.60;3.30;;;28.30;46.50;;;;;;5059371;28;20765;-46
2022/07/31 10:50:29;;;;;;;6.13;3.60;;;28.30;46.20;;;;;;5034174;28;20219;-46
2022/07/31 10:53:10;;;;;;;4.13;3.53;;;28.10;46.60;;;;;;5031795;28;20499;-46
2022/07/31 10:55:37;;;;;;;3.93;3.63;;;28.20;46.40;;;;;;5035755;28;20203;-46
2022/07/31 10:58:11;;;;;;;3.80;3.50;;;28.20;46.40;;;;;;5034513;28;20238;-46
2022/07/31 11:00:39;;;;;;;7.50;4.87;;;28.30;46.30;;;;;;5031184;28;20207;-46
2022/07/31 11:03:16;;;;;;;4.07;3.23;;;28.30;46.10;;;;;;5032548;28;20211;-46
2022/07/31 11:05:58;;;;;;;4.70;3.30;;;28.40;45.90;;;;;;5035129;28;20901;-46
2022/07/31 11:08:43;;;;;;;4.20;3.80;;;28.40;46.20;;;;;;5031181;28;20454;-46
2022/07/31 11:11:11;;;;;;;4.80;3.90;;;28.40;46.40;;;;;;5033597;28;20466;-46
2022/07/31 11:13:49;;;;;;;4.23;3.40;;;28.50;46.40;;;;;;5028771;28;20213;-46
2022/07/31 11:16:16;;;;;;;3.70;3.40;;;28.40;46.10;;;;;;5025280;28;20810;-46
2022/07/31 11:18:45;;;;;;;4.53;4.03;;;28.50;46.10;;;;;;5031104;28;20204;-46
2022/07/31 11:21:12;;;;;;;3.97;3.57;;;28.50;45.80;;;;;;5034506;28;20338;-46
2022/07/31 11:23:59;;;;;;;3.80;3.43;;;28.50;45.70;;;;;;5034286;28;20418;-46
2022/07/31 11:26:31;;;;;;;3.80;3.50;;;28.50;45.50;;;;;;5033745;28;20262;-47
2022/07/31 11:29:08;;;;;;;4.00;3.20;;;28.40;45.50;;;;;;5037517;28;20529;-46
2022/07/31 11:31:59;;;;;;;4.70;3.87;;;28.50;45.50;;;;;;5035989;28;20199;-46
2022/07/31 11:34:26;;;;;;;5.13;3.10;;;28.50;45.30;;;;;;5034530;28;20271;-46
2022/07/31 11:36:53;;;;;;;3.80;3.50;;;28.50;45.30;;;;;;5039143;28;20222;-46
2022/07/31 11:39:22;;;;;;;3.73;3.37;;;28.60;45.60;;;;;;5040931;28;20608;-46
2022/07/31 11:42:03;;;;;;;4.20;3.80;;;28.60;45.40;;;;;;5036359;28;20254;-46
2022/07/31 11:44:30;;;;;;;10.80;3.80;;;28.60;45.60;;;;;;5040251;28;20286;-46
2022/07/31 11:46:56;;;;;;;4.47;4.07;;;28.60;46.00;;;;;;5040765;28;20674;-46
2022/07/31 11:49:23;;;;;;;4.00;3.60;;;28.60;45.70;;;;;;5035834;28;20588;-47
2022/07/31 11:52:11;;;;;;;3.87;3.27;;;28.60;45.70;;;;;;5041419;28;20204;-46
2022/07/31 11:55:06;;;;;;;4.10;3.80;;;28.70;45.30;;;;;;5040958;28;20219;-47
2022/07/31 11:57:35;;;;;;;3.13;2.83;;;28.80;45.40;;;;;;5038751;28;20235;-46
2022/07/31 12:00:20;;;;;;;5.07;3.13;;;28.80;45.30;;;;;;5067211;28;20235;-46
2022/07/31 12:02:55;;;;;;;4.20;3.20;;;28.80;45.20;;;;;;5042207;28;20413;-46
2022/07/31 12:05:22;;;;;;;3.40;2.50;;;28.90;44.90;;;;;;5036243;28;20315;-47
2022/07/31 12:08:06;;;;;;;3.37;3.07;;;28.90;45.00;;;;;;5040946;28;20714;-46
2022/07/31 12:10:33;;;;;;;3.60;2.97;;;28.90;44.60;;;;;;5069651;28;20215;-46
2022/07/31 12:13:01;;;;;;;3.40;3.10;;;29.00;44.50;;;;;;5040594;28;20215;-47
2022/07/31 12:15:28;;;;;;;5.43;3.40;;;29.10;44.20;;;;;;5041599;28;20311;-47
2022/07/31 12:18:03;;;;;;;3.83;3.30;;;29.00;43.90;;;;;;5037498;28;20636;-47
2022/07/31 12:20:31;;;;;;;3.97;2.80;;;29.10;43.90;;;;;;5032000;28;20210;-47
2022/07/31 12:23:04;;;;;;;2.90;2.70;;;29.10;43.90;;;;;;5037663;28;20238;-47
2022/07/31 12:25:42;;;;;;;3.80;3.00;;;29.10;43.60;;;;;;5036301;28;20239;-47
2022/07/31 12:28:11;;;;;;;3.65;3.20;;;29.10;43.60;;;;;;5039727;28;20261;-47
2022/07/31 12:30:38;;;;;;;3.33;3.03;;;29.10;43.60;;;;;;5038663;28;20204;-48
2022/07/31 12:33:06;;;;;;;3.90;2.63;;;29.10;43.50;;;;;;5041332;28;20213;-47
2022/07/31 12:35:41;;;;;;;3.40;3.20;;;29.10;43.30;;;;;;5033650;28;20215;-47
2022/07/31 12:38:24;;;;;;;4.00;2.90;;;29.20;43.30;;;;;;5036846;28;20243;-47
2022/07/31 12:41:11;;;;;;;3.20;2.97;;;29.20;43.20;;;;;;5031137;28;20207;-47
2022/07/31 12:43:40;;;;;;;2.53;2.33;;;29.20;43.10;;;;;;5040610;28;20238;-47
2022/07/31 12:46:34;;;;;;;2.90;2.70;;;29.20;43.10;;;;;;5029831;28;20339;-47
2022/07/31 12:49:02;;;;;;;4.93;3.67;;;29.20;43.40;;;;;;5022933;28;20254;-47
2022/07/31 12:51:32;;;;;;;3.17;2.70;;;29.20;43.10;;;;;;5027220;28;20208;-47
2022/07/31 12:54:13;;;;;;;2.80;2.60;;;29.20;43.50;;;;;;5028486;28;20711;-47
2022/07/31 12:56:40;;;;;;;3.67;3.00;;;29.30;43.40;;;;;;5020329;28;20227;-47
2022/07/31 12:59:08;;;;;;;2.97;2.77;;;29.30;43.40;;;;;;5029102;28;20226;-47
2022/07/31 13:01:36;;;;;;;4.10;3.07;;;29.40;42.90;;;;;;5024012;28;20211;-47
2022/07/31 13:04:04;;;;;;;3.13;2.83;;;29.40;42.60;;;;;;5032155;28;20231;-47